ADDS METAR Data INFO
IDs: Format: Raw Decoded Include TAF

Data at: 1307 UTC 20 Jan 2018

METAR for:KAOH (Lima/Allen Cnty, OH, US)
Text:KAOH 201253Z AUTO 22012KT 10SM CLR 01/M04 A2996 RMK AO2 SLP154 T00061039
Temperature: 0.6°C ( 33°F)
Dewpoint: -3.9°C ( 25°F) [RH = 72%]
Pressure (altimeter):29.96 inches Hg (1014.6 mb) [Sea level pressure: 1015.4 mb]
Winds:from the SW (220 degrees) at 14 MPH (12 knots; 6.2 m/s)
Visibility:10 or more sm (16+ km)
Ceiling:at least 12,000 feet AGL
Clouds:sky clear below 12,000 feet AGL
QC Flag:automated observation with no human augmentation